Time;durP1;ratioP1;P1;durP2;ratioP2;P2;SDS_P1;SDS_P2;PMS_P1;PMS_P2;Temp;Humidity;BMP_temperature;BMP_pressure;BME280_temperature;BME280_humidity;BME280_pressure;Samples;Min_cycle;Max_cycle;Signal;HPM_P1;HPM_P2
2021/04/11 00:01:01;;;;;;;5.00;3.20;;;;;;;4.62;54.83;98387.50;1629868;88;21216;-64
2021/04/11 00:03:30;;;;;;;4.78;2.30;;;;;;;4.60;55.71;98389.78;1629742;86;21623;-63
2021/04/11 00:05:58;;;;;;;4.35;3.20;;;;;;;4.61;55.57;98396.59;1629954;88;21268;-63
2021/04/11 00:08:26;;;;;;;4.50;2.72;;;;;;;4.59;54.38;98388.95;1629852;88;21149;-63
2021/04/11 00:10:59;;;;;;;4.62;2.75;;;;;;;4.58;54.49;98396.79;1629817;88;21176;-63
2021/04/11 00:13:35;;;;;;;8.13;3.85;;;;;;;4.56;55.54;98394.30;1629928;87;21617;-63
2021/04/11 00:16:26;;;;;;;6.35;3.58;;;;;;;4.52;55.52;98390.27;1631087;88;21153;-63
2021/04/11 00:18:55;;;;;;;5.47;2.98;;;;;;;4.48;56.08;98406.80;1615286;88;21628;-63
2021/04/11 00:21:24;;;;;;;5.87;2.62;;;;;;;4.44;55.80;98403.22;1615401;89;21195;-63
2021/04/11 00:23:52;;;;;;;6.92;3.22;;;;;;;4.42;56.29;98408.48;1614476;89;21647;-63
2021/04/11 00:26:21;;;;;;;3.85;3.17;;;;;;;4.42;55.46;98410.22;1588749;89;21223;-63
2021/04/11 00:28:49;;;;;;;5.95;2.92;;;;;;;4.40;56.15;98401.78;1615088;89;21204;-63
2021/04/11 00:31:17;;;;;;;3.62;2.58;;;;;;;4.38;56.16;98412.61;1615053;87;21231;-64
2021/04/11 00:33:45;;;;;;;9.55;3.58;;;;;;;4.37;55.71;98400.66;1615197;89;21186;-62
2021/04/11 00:36:18;;;;;;;6.10;3.45;;;;;;;4.35;55.74;98406.38;1615281;89;21604;-63
2021/04/11 00:38:46;;;;;;;4.60;2.75;;;;;;;4.29;56.26;98403.24;1615249;89;21216;-63
2021/04/11 00:41:45;;;;;;;4.72;3.00;;;;;;;4.26;55.48;98411.15;1615036;88;21317;-63
2021/04/11 00:44:14;;;;;;;6.78;3.12;;;;;;;4.20;55.52;98416.64;1698378;84;21159;-62
2021/04/11 00:46:56;;;;;;;4.55;2.52;;;;;;;4.12;55.70;98406.03;1698033;84;21184;-62
2021/04/11 00:49:49;;;;;;;6.25;3.08;;;;;;;4.06;56.31;98406.38;1698177;84;21159;-61
2021/04/11 00:52:18;;;;;;;8.05;3.95;;;;;;;4.00;56.16;98411.06;1698435;84;21592;-62
2021/04/11 00:54:45;;;;;;;8.18;2.92;;;;;;;3.89;58.22;98408.30;1698184;83;21211;-62
2021/04/11 00:57:16;;;;;;;5.80;3.02;;;;;;;3.81;58.91;98411.33;1672142;84;21175;-62
2021/04/11 00:59:45;;;;;;;5.58;2.90;;;;;;;3.78;58.71;98408.45;1698047;84;21155;-62
2021/04/11 01:02:13;;;;;;;4.83;2.80;;;;;;;3.76;58.50;98405.17;1672471;84;21175;-63
2021/04/11 01:04:42;;;;;;;3.35;2.55;;;;;;;3.74;56.76;98398.45;1698563;83;21156;-63
2021/04/11 01:07:13;;;;;;;5.03;2.25;;;;;;;3.72;58.06;98398.55;1698599;84;21128;-63
2021/04/11 01:09:47;;;;;;;5.12;2.92;;;;;;;3.71;58.01;98397.34;1672478;84;21179;-62
2021/04/11 01:12:22;;;;;;;4.00;3.58;;;;;;;3.67;59.38;98394.59;1698670;83;21167;-64
2021/04/11 01:14:52;;;;;;;7.33;3.77;;;;;;;3.59;59.07;98398.05;1698752;83;21148;-63
2021/04/11 01:17:23;;;;;;;8.13;3.55;;;;;;;3.51;59.22;98397.67;1698275;83;21124;-63
2021/04/11 01:19:53;;;;;;;10.38;4.17;;;;;;;3.44;59.80;98396.38;1673069;84;21181;-65
2021/04/11 01:22:54;;;;;;;5.25;3.95;;;;;;;3.25;61.09;98396.15;1698023;83;21167;-63
2021/04/11 01:25:31;;;;;;;8.65;4.60;;;;;;;3.23;59.62;98391.55;1698501;84;21171;-63
2021/04/11 01:28:04;;;;;;;5.23;3.70;;;;;;;3.13;60.97;98388.31;1698716;84;21168;-63
2021/04/11 01:30:36;;;;;;;5.08;4.15;;;;;;;3.10;60.87;98386.75;1698412;83;21159;-63
2021/04/11 01:33:10;;;;;;;4.00;3.35;;;;;;;3.02;62.06;98381.67;1673174;83;21584;-63
2021/04/11 01:35:40;;;;;;;7.62;4.00;;;;;;;2.99;61.99;98379.28;1698407;84;21136;-63
2021/04/11 01:38:09;;;;;;;8.13;5.08;;;;;;;3.00;59.14;98374.50;1672833;84;21179;-64
2021/04/11 01:40:56;;;;;;;9.88;4.78;;;;;;;2.98;61.71;98371.20;1698486;84;21135;-65
2021/04/11 01:43:25;;;;;;;11.18;4.53;;;;;;;2.94;62.41;98370.55;1698318;84;21648;-62
2021/04/11 01:45:56;;;;;;;6.72;4.45;;;;;;;2.92;60.26;98364.67;1672541;84;21628;-63
2021/04/11 01:48:25;;;;;;;4.95;3.40;;;;;;;2.89;61.16;98366.12;1673063;84;21163;-64
2021/04/11 01:50:55;;;;;;;8.85;3.25;;;;;;;2.84;60.29;98373.27;1703289;84;21155;-62
2021/04/11 01:53:24;;;;;;;8.88;4.10;;;;;;;2.81;60.22;98377.27;1711052;83;21221;-64
2021/04/11 01:55:55;;;;;;;6.10;3.70;;;;;;;2.75;61.13;98381.47;1711490;83;21583;-62
2021/04/11 01:58:26;;;;;;;6.72;3.25;;;;;;;2.67;59.96;98378.04;1711153;84;21210;-63
2021/04/11 02:01:28;;;;;;;7.30;3.77;;;;;;;2.66;60.47;98390.93;1710657;83;21595;-62
2021/04/11 02:04:19;;;;;;;12.00;4.35;;;;;;;2.60;60.88;98382.30;1823630;77;23119;-63
2021/04/11 02:06:51;;;;;;;5.42;3.35;;;;;;;2.52;60.93;98398.55;1827424;78;21627;-63
2021/04/11 02:09:36;;;;;;;7.67;4.55;;;;;;;2.46;61.37;98397.12;1825150;78;21128;-62
2021/04/11 02:12:22;;;;;;;8.10;4.05;;;;;;;2.39;62.62;98397.09;1827467;78;21270;-62
2021/04/11 02:14:52;;;;;;;5.30;3.87;;;;;;;2.32;61.45;98403.00;1826882;78;21722;-63
2021/04/11 02:17:21;;;;;;;8.83;5.28;;;;;;;2.30;62.52;98402.23;1827138;78;21210;-62
2021/04/11 02:19:54;;;;;;;7.03;4.42;;;;;;;2.27;61.42;98399.84;1827403;78;21116;-62
2021/04/11 02:22:28;;;;;;;7.37;4.55;;;;;;;2.27;61.48;98404.14;1827456;78;21509;-62
2021/04/11 02:25:05;;;;;;;12.60;3.65;;;;;;;2.26;62.05;98398.19;1827723;78;21531;-62
2021/04/11 02:27:34;;;;;;;8.28;4.12;;;;;;;2.25;61.16;98395.27;1828023;78;21317;-62
2021/04/11 02:30:09;;;;;;;10.43;4.60;;;;;;;2.27;60.68;98395.17;1827624;78;21195;-62
2021/04/11 02:32:37;;;;;;;6.45;2.75;;;;;;;2.26;62.02;98390.50;1798638;78;21544;-65
2021/04/11 02:35:15;;;;;;;10.68;3.65;;;;;;;2.26;62.36;98393.51;1827693;78;21143;-63
2021/04/11 02:37:46;;;;;;;5.35;3.05;;;;;;;2.26;61.23;98389.22;1827673;78;21314;-62
2021/04/11 02:40:25;;;;;;;5.47;3.33;;;;;;;2.26;60.82;98389.66;1827746;78;21142;-63
2021/04/11 02:42:58;;;;;;;9.95;3.20;;;;;;;2.25;60.23;98388.03;1827839;78;21299;-64
2021/04/11 02:48:13;;;;;;;3.85;2.15;;;;;;;2.26;59.71;98388.38;1683066;83;21157;-64
2021/04/11 02:50:52;;;;;;;6.25;2.60;;;;;;;2.27;59.39;98389.59;1703293;84;21367;-64
2021/04/11 02:53:25;;;;;;;3.22;2.70;;;;;;;2.26;60.50;98387.94;1703191;84;21145;-63
2021/04/11 02:55:55;;;;;;;5.08;2.08;;;;;;;2.25;60.89;98398.28;1703277;83;21622;-65
2021/04/11 02:58:24;;;;;;;5.45;3.12;;;;;;;2.21;61.38;98394.23;1703237;84;21664;-64
2021/04/11 03:01:20;;;;;;;4.62;3.33;;;;;;;2.16;62.42;98389.78;1703159;84;21158;-63
2021/04/11 03:03:49;;;;;;;4.70;2.80;;;;;;;2.12;61.13;98392.13;1741255;82;21597;-63
2021/04/11 03:06:22;;;;;;;5.80;3.42;;;;;;;2.10;61.59;98399.09;1744884;82;21164;-63
2021/04/11 03:08:56;;;;;;;5.75;3.00;;;;;;;2.07;63.18;98399.22;1744904;82;21220;-63
2021/04/11 03:11:38;;;;;;;5.10;2.60;;;;;;;2.03;61.52;98399.00;1744047;82;21346;-63
2021/04/11 03:14:12;;;;;;;6.12;3.15;;;;;;;2.02;61.50;98400.77;1744669;82;21191;-63
2021/04/11 03:16:43;;;;;;;5.30;3.75;;;;;;;1.99;60.78;98393.66;1716180;82;21557;-63
2021/04/11 03:19:18;;;;;;;5.12;3.67;;;;;;;1.99;61.28;98407.75;1744587;82;21156;-65
2021/04/11 03:21:57;;;;;;;5.65;4.50;;;;;;;1.99;61.52;98409.86;1779287;79;22923;-63
2021/04/11 03:24:25;;;;;;;7.22;3.05;;;;;;;1.92;60.67;98414.94;1753144;82;21171;-63
2021/04/11 03:27:19;;;;;;;4.85;3.05;;;;;;;1.89;62.55;98419.77;1724282;82;21151;-63
2021/04/11 03:30:06;;;;;;;6.85;3.52;;;;;;;1.83;62.61;98424.35;1746256;80;21152;-63
2021/04/11 03:32:40;;;;;;;5.85;2.67;;;;;;;1.76;62.72;98421.28;1753719;82;21166;-64
2021/04/11 03:35:14;;;;;;;4.58;3.52;;;;;;;1.71;63.40;98427.08;1751812;82;21220;-63
2021/04/11 03:37:44;;;;;;;4.45;3.83;;;;;;;1.67;63.34;98434.56;1753729;82;21585;-63
2021/04/11 03:40:36;;;;;;;3.75;2.92;;;;;;;1.66;63.29;98437.19;1753406;82;21121;-64
2021/04/11 03:43:40;;;;;;;8.95;3.87;;;;;;;1.63;63.26;98440.73;1686583;84;21208;-65
2021/04/11 03:46:48;;;;;;;5.50;2.98;;;;;;;1.61;63.13;98439.97;1774385;81;21734;-64
2021/04/11 03:52:30;;;;;;;9.10;4.65;;;;;;;1.69;62.22;98444.71;1823976;77;23183;-64
2021/04/11 03:55:03;;;;;;;5.62;2.30;;;;;;;1.62;62.47;98439.08;1760270;81;21151;-63
2021/04/11 03:57:51;;;;;;;9.45;3.52;;;;;;;1.60;64.04;98442.59;1770067;81;21172;-63
2021/04/11 04:00:26;;;;;;;4.28;2.98;;;;;;;1.58;64.06;98448.25;1768734;81;21186;-62
2021/04/11 04:02:59;;;;;;;3.92;2.50;;;;;;;1.55;64.85;98445.85;1769818;81;21183;-63
2021/04/11 04:05:30;;;;;;;6.17;3.20;;;;;;;1.51;64.84;98442.62;1769627;81;21619;-62
2021/04/11 04:11:14;;;;;;;5.47;3.98;;;;;;;1.49;64.52;98443.58;1543058;91;21252;-62
2021/04/11 04:14:09;;;;;;;4.65;3.67;;;;;;;1.49;64.17;98445.69;1565080;91;21207;-64
2021/04/11 04:16:46;;;;;;;7.55;4.28;;;;;;;1.51;63.91;98452.86;1565298;91;21200;-64
2021/04/11 04:19:26;;;;;;;6.25;4.00;;;;;;;1.49;64.76;98450.80;1567524;90;21212;-64
2021/04/11 04:22:05;;;;;;;5.53;2.98;;;;;;;1.43;65.39;98454.52;1567675;91;21727;-62
2021/04/11 04:24:48;;;;;;;5.85;3.42;;;;;;;1.44;64.37;98452.30;1561639;91;21636;-63
2021/04/11 04:27:35;;;;;;;6.20;4.03;;;;;;;1.50;64.33;98461.43;1567557;91;21597;-62
2021/04/11 04:30:19;;;;;;;6.83;3.52;;;;;;;1.56;63.18;98459.84;1563436;91;21307;-62
2021/04/11 04:33:20;;;;;;;7.72;4.70;;;;;;;1.66;63.12;98466.63;1567426;91;21268;-65
2021/04/11 04:39:35;;;;;;;8.50;4.50;;;;;;;1.76;63.44;98474.22;1726147;82;21611;-65
2021/04/11 04:42:29;;;;;;;7.53;4.62;;;;;;;1.80;62.56;98475.72;1721704;81;21147;-63
2021/04/11 04:45:11;;;;;;;4.80;3.85;;;;;;;1.80;64.40;98474.45;1696017;83;21703;-63
2021/04/11 04:47:52;;;;;;;6.33;2.52;;;;;;;1.86;65.02;98480.11;1726619;81;21191;-63
2021/04/11 04:50:33;;;;;;;6.72;3.70;;;;;;;1.91;65.76;98481.97;1712288;81;21604;-65
2021/04/11 04:53:13;;;;;;;3.55;2.60;;;;;;;1.96;65.22;98485.59;1695676;84;21188;-62
2021/04/11 04:55:56;;;;;;;6.85;2.30;;;;;;;2.03;64.73;98486.94;1728587;81;21159;-64
2021/04/11 04:58:38;;;;;;;5.62;2.65;;;;;;;2.13;64.82;98487.31;1695922;84;21168;-63
2021/04/11 05:01:20;;;;;;;3.95;2.65;;;;;;;2.21;64.72;98487.75;1728476;81;21166;-64
2021/04/11 05:03:57;;;;;;;3.50;2.17;;;;;;;2.31;63.74;98487.20;1727056;82;21156;-64
2021/04/11 05:06:38;;;;;;;3.58;3.05;;;;;;;2.40;63.64;98487.18;1727603;81;21159;-62
2021/04/11 05:09:34;;;;;;;2.55;1.95;;;;;;;2.49;63.76;98482.84;1726612;81;21155;-63
2021/04/11 05:12:58;;;;;;;4.70;2.65;;;;;;;2.57;63.30;98490.95;1727460;81;21235;-66
2021/04/11 05:15:38;;;;;;;2.95;1.90;;;;;;;2.66;63.70;98494.78;1695378;84;21529;-64
2021/04/11 05:18:25;;;;;;;7.10;2.22;;;;;;;2.78;63.24;98489.00;1727232;81;21297;-62
2021/04/11 05:21:09;;;;;;;4.67;2.60;;;;;;;2.89;62.64;98486.69;1725491;81;21189;-64
2021/04/11 05:23:48;;;;;;;6.28;3.12;;;;;;;3.02;61.28;98486.41;1727918;81;21756;-63
2021/04/11 05:26:28;;;;;;;7.72;3.45;;;;;;;3.15;61.15;98475.83;1699583;82;21143;-63
2021/04/11 05:29:12;;;;;;;7.40;3.17;;;;;;;3.28;61.06;98477.27;1695478;84;21558;-63
2021/04/11 05:31:43;;;;;;;7.15;3.65;;;;;;;3.41;60.42;98488.53;1727792;81;21337;-64
2021/04/11 05:34:16;;;;;;;5.60;3.40;;;;;;;3.53;60.19;98475.01;1695431;84;21168;-63
2021/04/11 05:37:05;;;;;;;4.95;2.80;;;;;;;3.64;60.55;98476.95;1727751;81;21592;-63
2021/04/11 05:40:03;;;;;;;4.17;3.30;;;;;;;3.70;59.88;98473.57;1695042;84;21160;-63
2021/04/11 05:45:50;;;;;;;5.58;3.55;;;;;;;3.87;59.33;98468.76;1618002;87;21225;-65
2021/04/11 05:48:38;;;;;;;8.50;4.37;;;;;;;3.98;58.76;98475.84;1613500;89;21238;-63
2021/04/11 05:51:20;;;;;;;5.62;3.12;;;;;;;4.09;58.08;98470.89;1612364;88;21245;-64
2021/04/11 05:53:59;;;;;;;4.92;3.25;;;;;;;4.25;57.68;98474.22;1614477;88;21201;-64
2021/04/11 05:56:38;;;;;;;4.83;2.83;;;;;;;4.40;57.47;98473.78;1601392;90;22271;-62
2021/04/11 05:59:20;;;;;;;4.80;2.95;;;;;;;4.55;57.16;98472.86;1611192;88;21170;-63
2021/04/11 06:01:58;;;;;;;3.83;2.95;;;;;;;4.70;57.07;98476.61;1594896;90;21330;-62
2021/04/11 06:04:38;;;;;;;6.65;3.75;;;;;;;4.84;57.16;98468.03;1594795;90;21211;-63
2021/04/11 06:07:33;;;;;;;9.63;3.70;;;;;;;4.99;56.32;98471.39;1595179;90;21239;-63
2021/04/11 06:13:53;;;;;;;8.13;3.30;;;;;;;5.35;54.68;98471.66;1631867;88;21158;-63
2021/04/11 06:19:59;;;;;;;7.58;3.30;;;;;;;5.73;54.10;98462.27;1630798;88;21276;-65
2021/04/11 06:30:16;;;;;;;6.05;3.47;;;;;;;6.31;52.52;98455.84;1630767;88;21177;-63
2021/04/11 06:32:52;;;;;;;4.72;2.77;;;;;;;6.56;52.82;98453.25;1602299;89;21307;-65
2021/04/11 06:35:28;;;;;;;6.00;3.30;;;;;;;6.79;51.58;98446.95;1658343;85;21135;-66
2021/04/11 06:37:59;;;;;;;6.35;3.33;;;;;;;6.97;50.79;98453.39;1601905;89;21587;-64
2021/04/11 06:44:03;;;;;;;16.32;3.98;;;;;;;7.30;50.77;98450.18;1605900;88;21168;-63
2021/04/11 06:46:49;;;;;;;7.85;3.92;;;;;;;7.52;49.87;98447.68;1665107;84;21160;-63
2021/04/11 06:49:37;;;;;;;6.90;3.92;;;;;;;7.73;48.92;98451.30;1662398;85;21148;-63
2021/04/11 06:52:38;;;;;;;13.35;4.50;;;;;;;7.88;48.77;98455.80;1604759;86;21204;-63
2021/04/11 06:55:38;;;;;;;9.40;4.12;;;;;;;8.03;47.52;98452.06;1662238;85;21168;-62
2021/04/11 06:58:54;;;;;;;10.35;4.03;;;;;;;8.22;47.64;98449.73;1662260;86;21612;-63
2021/04/11 07:01:58;;;;;;;6.90;3.80;;;;;;;8.36;47.83;98455.20;1644579;86;21162;-63
2021/04/11 07:04:57;;;;;;;8.95;4.10;;;;;;;8.52;47.29;98463.45;1634717;86;21285;-62
2021/04/11 07:07:40;;;;;;;9.70;4.00;;;;;;;8.67;46.90;98461.44;1660185;85;21319;-61
2021/04/11 07:10:34;;;;;;;5.78;4.53;;;;;;;8.87;49.35;98457.62;1660327;85;21222;-61
2021/04/11 07:13:27;;;;;;;11.15;4.60;;;;;;;8.94;47.41;98455.41;1608358;85;21187;-60
2021/04/11 07:16:42;;;;;;;14.23;5.35;;;;;;;9.13;46.44;98448.30;1660310;85;21233;-61
2021/04/11 07:19:31;;;;;;;15.23;5.58;;;;;;;9.24;46.70;98447.79;1660384;85;21254;-63
2021/04/11 07:27:40;;;;;;;16.62;7.12;;;;;;;9.60;46.23;98448.38;1852209;76;22326;-64
2021/04/11 07:30:30;;;;;;;8.38;4.90;;;;;;;9.69;45.97;98455.41;1821822;78;21116;-64
2021/04/11 07:33:36;;;;;;;16.95;5.62;;;;;;;9.75;46.19;98452.30;1821640;77;21612;-63
2021/04/11 07:36:31;;;;;;;10.75;5.75;;;;;;;9.85;46.85;98447.99;1848428;77;21685;-63
2021/04/11 07:39:53;;;;;;;9.88;4.47;;;;;;;10.05;46.37;98443.28;1752656;82;21360;-63
2021/04/11 07:46:17;;;;;;;9.70;5.37;;;;;;;10.39;46.08;98442.12;1722505;82;21136;-64
2021/04/11 07:49:30;;;;;;;7.37;4.28;;;;;;;10.62;45.95;98439.37;1756376;80;21226;-63
2021/04/11 07:52:16;;;;;;;6.65;3.92;;;;;;;10.81;45.41;98439.43;1707840;83;21137;-63
2021/04/11 07:55:16;;;;;;;7.30;4.72;;;;;;;11.03;44.86;98433.18;1696400;82;21145;-64
2021/04/11 07:58:06;;;;;;;12.70;5.20;;;;;;;11.16;44.98;98433.28;1678024;85;21605;-64
2021/04/11 08:03:59;;;;;;;8.75;5.28;;;;;;;11.76;44.07;98427.02;1707795;83;22341;-63
2021/04/11 08:10:25;;;;;;;7.55;3.98;;;;;;;12.35;42.35;98418.11;1763604;81;21642;-64
2021/04/11 08:13:01;;;;;;;10.18;4.47;;;;;;;12.61;42.06;98413.05;1697222;84;21142;-64
2021/04/11 08:15:52;;;;;;;8.28;4.67;;;;;;;12.89;40.99;98412.09;1684981;85;21152;-64
2021/04/11 08:18:43;;;;;;;6.65;3.77;;;;;;;13.13;40.23;98407.66;1698244;84;21183;-64
2021/04/11 08:21:52;;;;;;;9.98;3.98;;;;;;;13.39;38.58;98402.51;1698447;84;21568;-64
2021/04/11 08:24:59;;;;;;;4.80;3.95;;;;;;;13.55;37.82;98400.87;1677999;85;21204;-64
2021/04/11 08:27:57;;;;;;;5.65;3.95;;;;;;;13.78;37.17;98397.29;1731104;83;21409;-66
2021/04/11 08:30:55;;;;;;;7.10;3.58;;;;;;;13.98;36.31;98402.66;1694063;85;21609;-65
2021/04/11 08:33:44;;;;;;;7.95;3.67;;;;;;;14.20;35.32;98393.50;1664826;86;21180;-62
2021/04/11 08:36:52;;;;;;;7.67;3.55;;;;;;;14.44;34.74;98397.55;1664691;86;21214;-64
2021/04/11 08:40:09;;;;;;;6.30;4.45;;;;;;;14.71;34.62;98395.22;1692419;84;21633;-63
2021/04/11 08:43:24;;;;;;;5.53;3.12;;;;;;;14.85;33.24;98392.50;1708102;84;21143;-63
2021/04/11 08:46:19;;;;;;;6.45;3.00;;;;;;;15.12;34.69;98385.70;1693905;83;21593;-63
2021/04/11 08:49:17;;;;;;;5.85;2.75;;;;;;;15.29;30.51;98384.72;1705915;82;21558;-64
2021/04/11 08:52:02;;;;;;;5.35;3.52;;;;;;;15.36;29.95;98376.58;1731871;82;21135;-63
2021/04/11 08:54:45;;;;;;;5.50;3.37;;;;;;;15.64;29.09;98377.11;1697155;83;21594;-64
2021/04/11 08:57:24;;;;;;;4.22;2.67;;;;;;;15.83;28.37;98376.77;1694935;83;21206;-64
2021/04/11 09:00:03;;;;;;;3.40;2.12;;;;;;;15.99;26.99;98374.09;1736563;82;21550;-63
2021/04/11 09:02:49;;;;;;;3.30;2.30;;;;;;;16.24;28.08;98372.24;1724826;82;21226;-63
2021/04/11 09:05:35;;;;;;;4.45;2.00;;;;;;;16.42;27.37;98367.59;1724076;82;21563;-64
2021/04/11 09:11:46;;;;;;;2.33;1.85;;;;;;;16.83;24.66;98368.76;1790775;79;21530;-63
2021/04/11 09:14:53;;;;;;;3.15;2.05;;;;;;;17.09;25.74;98374.02;1701670;83;21140;-65
2021/04/11 09:17:41;;;;;;;3.90;2.37;;;;;;;17.23;23.93;98360.65;1648522;85;21664;-65
2021/04/11 09:20:32;;;;;;;3.22;1.77;;;;;;;17.39;24.01;98362.34;1708468;82;21145;-63
2021/04/11 09:23:32;;;;;;;5.60;2.87;;;;;;;17.56;23.24;98352.01;1707605;82;21201;-64
2021/04/11 09:26:42;;;;;;;5.03;2.72;;;;;;;17.69;23.97;98348.32;1697138;82;21138;-63
2021/04/11 09:29:30;;;;;;;4.75;2.72;;;;;;;17.98;23.51;98347.03;1707489;82;21181;-63
2021/04/11 09:32:16;;;;;;;4.12;2.90;;;;;;;18.08;23.73;98341.53;1707950;82;21205;-64
2021/04/11 09:35:16;;;;;;;5.35;2.05;;;;;;;18.38;22.58;98341.84;1707476;82;21666;-64
2021/04/11 09:38:09;;;;;;;4.75;2.37;;;;;;;18.66;22.29;98336.75;1709258;83;21154;-64
2021/04/11 09:41:10;;;;;;;4.70;2.37;;;;;;;18.98;21.61;98346.02;1709310;82;21118;-64
2021/04/11 09:44:22;;;;;;;3.27;2.10;;;;;;;19.02;21.69;98338.56;1708175;82;21568;-64
2021/04/11 09:47:42;;;;;;;3.15;2.02;;;;;;;19.33;21.57;98335.95;1648861;85;21478;-65
2021/04/11 09:50:39;;;;;;;4.83;1.92;;;;;;;19.33;21.31;98317.52;1672094;84;21583;-66
2021/04/11 09:53:33;;;;;;;;;;;;;;;19.52;21.93;98331.87;1675967;84;21139;-64
2021/04/11 10:00:02;;;;;;;3.85;2.00;;;;;;;20.49;20.01;98325.31;1724683;82;21247;-65
2021/04/11 10:03:01;;;;;;;6.15;2.50;;;;;;;20.68;21.05;98306.91;1724221;83;21639;-64
2021/04/11 10:06:10;;;;;;;3.83;2.12;;;;;;;20.53;19.78;98309.39;1787100;79;22960;-64
2021/04/11 10:09:05;;;;;;;4.35;2.08;;;;;;;20.82;19.20;98306.43;1770111;80;21167;-63
2021/04/11 10:12:24;;;;;;;2.80;1.90;;;;;;;20.81;18.73;98305.64;1786760;80;21565;-64
2021/04/11 10:15:20;;;;;;;3.42;2.12;;;;;;;21.21;20.30;98299.94;1713460;83;21306;-64
2021/04/11 10:18:27;;;;;;;5.33;2.10;;;;;;;21.51;18.47;98311.45;1742674;82;21155;-62
2021/04/11 10:21:13;;;;;;;4.47;1.80;;;;;;;22.20;17.96;98308.63;1713335;83;21228;-63
2021/04/11 10:24:14;;;;;;;2.70;1.98;;;;;;;22.23;18.40;98300.27;1679223;85;21246;-64
2021/04/11 10:27:04;;;;;;;7.62;4.60;;;;;;;21.86;18.29;98298.30;1734403;82;21716;-65
2021/04/11 10:29:35;;;;;;;6.60;3.50;;;;;;;22.01;18.33;98290.98;1683501;83;21164;-65
2021/04/11 10:32:23;;;;;;;3.65;1.95;;;;;;;21.40;18.83;98279.03;1742109;82;21269;-64
2021/04/11 10:35:29;;;;;;;3.70;2.00;;;;;;;21.22;18.99;98284.41;1712954;83;21144;-62
2021/04/11 10:38:27;;;;;;;4.20;2.12;;;;;;;21.59;18.32;98289.59;1819433;79;22943;-64
2021/04/11 10:41:52;;;;;;;2.72;1.67;;;;;;;21.69;18.56;98291.80;1792917;80;21163;-64
2021/04/11 10:44:42;;;;;;;3.08;2.05;;;;;;;21.84;17.82;98286.29;1563252;91;21206;-64
2021/04/11 10:47:53;;;;;;;2.90;1.62;;;;;;;22.55;18.30;98281.31;1556696;88;21179;-64
2021/04/11 10:51:06;;;;;;;3.15;1.98;;;;;;;22.71;16.76;98272.11;1567305;91;21741;-65
2021/04/11 10:54:16;;;;;;;3.02;1.90;;;;;;;22.74;16.70;98273.00;1594882;89;21299;-64
2021/04/11 10:57:12;;;;;;;5.53;2.75;;;;;;;21.79;17.21;98274.50;1703570;84;21595;-64
2021/04/11 11:00:02;;;;;;;3.42;2.33;;;;;;;21.57;17.80;98261.23;1703873;84;21196;-63
2021/04/11 11:02:55;;;;;;;3.95;2.35;;;;;;;21.46;18.06;98275.06;1705093;84;21227;-64
2021/04/11 11:09:37;;;;;;;3.17;2.20;;;;;;;21.26;18.75;98273.73;1663533;86;21176;-64
2021/04/11 11:12:34;;;;;;;3.00;1.90;;;;;;;21.85;17.89;98274.70;1664045;86;21179;-61
2021/04/11 11:15:11;;;;;;;3.05;1.70;;;;;;;22.13;18.19;98254.12;1664044;86;21219;-64
2021/04/11 11:18:18;;;;;;;5.22;2.10;;;;;;;22.58;17.34;98253.09;1663909;86;21243;-64
2021/04/11 11:21:17;;;;;;;4.40;2.83;;;;;;;22.45;17.50;98257.12;1663842;86;21168;-65
2021/04/11 11:24:27;;;;;;;5.35;3.72;;;;;;;22.36;17.60;98241.71;1690771;85;21262;-64
2021/04/11 11:27:18;;;;;;;3.92;3.05;;;;;;;21.88;18.13;98255.78;1690702;85;21144;-64
2021/04/11 11:30:34;;;;;;;5.62;3.05;;;;;;;22.00;17.71;98245.72;1690712;85;21197;-62
2021/04/11 11:33:58;;;;;;;2.30;1.67;;;;;;;22.03;17.34;98238.68;1690797;85;21163;-65
2021/04/11 11:37:06;;;;;;;13.62;8.08;;;;;;;22.44;17.55;98242.29;1690807;84;21179;-63
2021/04/11 11:39:43;;;;;;;18.82;10.85;;;;;;;22.36;17.29;98239.06;1722086;83;21160;-64
2021/04/11 11:42:36;;;;;;;19.25;11.93;;;;;;;21.96;17.63;98228.64;1726826;82;21216;-64
2021/04/11 11:45:09;;;;;;;6.28;4.65;;;;;;;21.80;18.20;98233.02;1722060;83;21545;-64
2021/04/11 11:48:13;;;;;;;11.15;5.87;;;;;;;21.45;18.24;98218.45;1721908;83;21301;-62
2021/04/11 11:51:08;;;;;;;7.37;3.55;;;;;;;21.67;18.34;98220.64;1721556;83;21237;-64
2021/04/11 11:53:59;;;;;;;5.40;3.37;;;;;;;21.30;18.48;98202.31;1721384;82;21592;-64
2021/04/11 11:56:36;;;;;;;5.55;2.62;;;;;;;21.22;18.94;98211.77;1721441;83;21174;-64
2021/04/11 11:59:12;;;;;;;5.08;3.33;;;;;;;20.96;19.41;98206.97;1695030;83;21162;-64
2021/04/11 12:01:58;;;;;;;5.40;3.22;;;;;;;21.21;19.08;98216.73;1720819;83;21191;-64
2021/04/11 12:04:41;;;;;;;5.87;3.00;;;;;;;21.11;19.50;98210.22;1721637;82;21242;-65
2021/04/11 12:07:20;;;;;;;7.37;3.33;;;;;;;21.10;19.07;98205.95;1727888;82;21155;-63
2021/04/11 12:10:10;;;;;;;5.83;2.90;;;;;;;20.86;18.65;98200.75;1707418;83;21128;-64
2021/04/11 12:12:59;;;;;;;6.95;4.80;;;;;;;20.63;19.07;98201.64;1721546;83;21667;-64
2021/04/11 12:15:41;;;;;;;12.33;6.60;;;;;;;20.61;18.99;98196.58;1721274;83;21560;-65
2021/04/11 12:18:14;;;;;;;12.60;6.80;;;;;;;20.73;18.87;98198.94;1721295;83;21723;-65
2021/04/11 12:21:03;;;;;;;3.10;2.33;;;;;;;20.82;19.12;98192.43;1718693;82;21162;-64
2021/04/11 12:26:33;;;;;;;8.20;4.72;;;;;;;21.09;19.01;98180.05;1670189;85;21204;-64
2021/04/11 12:29:10;;;;;;;5.37;3.55;;;;;;;21.83;18.46;98177.63;1676776;85;21188;-64
2021/04/11 12:31:47;;;;;;;3.42;2.50;;;;;;;22.32;18.89;98169.89;1673908;84;21271;-64
2021/04/11 12:34:20;;;;;;;4.55;3.25;;;;;;;22.71;17.98;98163.56;1638570;85;21234;-64
2021/04/11 12:37:14;;;;;;;4.62;2.72;;;;;;;22.11;17.49;98165.72;1670081;85;21160;-65
2021/04/11 12:39:44;;;;;;;6.28;4.58;;;;;;;21.90;17.95;98166.00;1627756;86;21212;-65
2021/04/11 12:42:37;;;;;;;4.05;2.75;;;;;;;21.06;18.58;98161.16;1671134;85;21601;-65
2021/04/11 12:45:30;;;;;;;7.03;4.60;;;;;;;21.06;18.87;98158.02;1623595;88;21185;-64
2021/04/11 12:48:41;;;;;;;5.97;2.47;;;;;;;21.07;18.76;98157.51;1624154;87;21224;-65
2021/04/11 12:57:23;;;;;;;2.87;1.82;;;;;;;20.96;19.25;98135.19;1722389;83;21172;-62
2021/04/11 13:00:12;;;;;;;2.12;1.60;;;;;;;21.09;18.43;98135.66;1723773;82;21211;-62
2021/04/11 13:02:51;;;;;;;2.40;1.70;;;;;;;21.36;18.70;98124.06;1708324;82;21198;-62
2021/04/11 13:05:39;;;;;;;1.90;1.40;;;;;;;21.83;18.53;98124.20;1742629;82;21914;-63
2021/04/11 13:08:33;;;;;;;2.80;1.92;;;;;;;22.11;18.72;98119.43;1727709;82;21242;-63
2021/04/11 13:11:29;;;;;;;2.33;1.57;;;;;;;22.28;17.96;98120.25;1710577;82;21175;-64
2021/04/11 13:14:36;;;;;;;2.50;1.70;;;;;;;22.98;16.99;98115.17;1730232;82;21208;-63
2021/04/11 13:17:12;;;;;;;3.08;2.30;;;;;;;23.30;17.08;98114.05;1648793;86;21206;-64
2021/04/11 13:19:58;;;;;;;2.85;1.50;;;;;;;23.44;16.98;98126.66;1721482;82;21144;-64
2021/04/11 13:22:49;;;;;;;2.90;1.55;;;;;;;22.15;17.21;98118.49;1728331;82;21155;-64
2021/04/11 13:25:47;;;;;;;2.95;1.52;;;;;;;22.25;17.09;98126.25;1665924;86;21793;-65
2021/04/11 13:29:02;;;;;;;2.47;1.80;;;;;;;21.77;17.92;98121.09;1649204;86;21184;-64
2021/04/11 13:31:54;;;;;;;3.50;1.37;;;;;;;21.63;17.68;98118.22;1666373;86;21182;-64
2021/04/11 13:34:39;;;;;;;5.58;1.75;;;;;;;22.22;17.56;98113.97;1768645;79;22455;-64
2021/04/11 13:37:34;;;;;;;2.95;1.85;;;;;;;22.17;17.29;98112.49;1743717;82;21215;-65
2021/04/11 13:40:07;;;;;;;4.53;1.57;;;;;;;22.09;17.52;98104.81;1691870;84;21170;-63
2021/04/11 13:43:20;;;;;;;;;;;;;;;;;;;;;
2021/04/11 13:46:13;;;;;;;3.00;1.75;;;;;;;21.59;18.12;98103.80;1831394;77;22655;-65
2021/04/11 13:48:55;;;;;;;3.17;1.87;;;;;;;21.48;18.23;98107.06;1821717;77;21212;-65
2021/04/11 13:51:48;;;;;;;2.87;2.00;;;;;;;21.56;18.45;98101.55;1810054;77;21196;-63
2021/04/11 13:54:50;;;;;;;3.72;2.05;;;;;;;21.56;18.16;98101.55;1806995;77;21126;-63
2021/04/11 13:57:26;;;;;;;2.83;2.10;;;;;;;21.32;18.34;98096.97;1783782;77;21145;-64
2021/04/11 14:00:18;;;;;;;2.05;1.40;;;;;;;21.20;18.60;98094.16;1808064;77;21612;-64
2021/04/11 14:03:10;;;;;;;2.25;1.70;;;;;;;21.21;18.82;98102.36;1803971;79;22943;-63
2021/04/11 14:05:40;;;;;;;1.82;1.45;;;;;;;20.98;18.73;98101.96;1770237;80;21212;-64
2021/04/11 14:08:56;;;;;;;2.85;1.55;;;;;;;21.03;18.67;98100.84;1788247;79;21136;-64
2021/04/11 14:11:48;;;;;;;1.90;1.30;;;;;;;21.47;18.15;98102.31;1706576;83;21153;-65
2021/04/11 14:14:30;;;;;;;3.83;1.90;;;;;;;22.23;17.73;98094.44;1732233;82;21164;-65
2021/04/11 14:17:18;;;;;;;3.67;1.65;;;;;;;22.71;17.09;98086.79;1706420;81;21161;-63